Time,TemperatureF,DewpointF,PressureIn,WindDirection,WindDirectionDegrees,WindSpeedMPH,WindSpeedGustMPH,Humidity,HourlyPrecipIn,Conditions,Clouds,dailyrainin,SoftwareType,DateUTC
2013-01-18 00:03:00,37.9,31.6,30.21,SW,225,0.0,0.0,78,0.00,,,0.00,WUHU216HW,2013-01-18 08:03:00,
2013-01-18 00:08:00,37.9,31.6,30.21,SW,225,0.0,0.0,78,0.00,,,0.00,WUHU216HW,2013-01-18 08:08:00,
2013-01-18 00:13:00,37.9,31.6,30.21,SW,225,0.0,0.0,78,0.00,,,0.00,WUHU216HW,2013-01-18 08:13:00,
2013-01-18 00:18:00,37.9,31.6,30.21,SW,225,0.0,0.0,78,0.00,,,0.00,WUHU216HW,2013-01-18 08:18:00,
2013-01-18 00:23:00,37.7,31.5,30.21,SW,225,0.0,0.0,78,0.00,,,0.00,WUHU216HW,2013-01-18 08:23:00,
2013-01-18 00:28:00,37.7,31.5,30.21,SW,225,0.0,0.0,78,0.00,,,0.00,WUHU216HW,2013-01-18 08:28:00,
2013-01-18 00:33:00,37.5,31.3,30.21,SW,225,0.0,0.0,78,0.00,,,0.00,WUHU216HW,2013-01-18 08:33:00,
2013-01-18 00:38:00,37.5,31.3,30.21,SW,225,0.0,0.0,78,0.00,,,0.00,WUHU216HW,2013-01-18 08:38:00,
2013-01-18 00:43:00,37.4,31.1,30.21,SW,225,0.0,0.0,78,0.00,,,0.00,WUHU216HW,2013-01-18 08:43:00,
2013-01-18 00:48:00,37.4,31.1,30.21,SW,225,0.0,0.0,78,0.00,,,0.00,WUHU216HW,2013-01-18 08:48:00,
2013-01-18 00:53:00,37.2,30.9,30.21,SW,225,0.0,0.0,78,0.00,,,0.00,WUHU216HW,2013-01-18 08:53:00,
2013-01-18 00:58:00,37.2,30.9,30.21,SW,225,0.0,0.0,78,0.00,,,0.00,WUHU216HW,2013-01-18 08:58:00,
2013-01-18 01:03:00,37.0,30.8,30.21,SW,225,0.0,0.0,78,0.00,,,0.00,WUHU216HW,2013-01-18 09:03:00,
2013-01-18 01:08:00,37.0,31.1,30.21,SW,225,0.0,0.0,79,0.00,,,0.00,WUHU216HW,2013-01-18 09:08:00,
2013-01-18 01:13:00,36.8,30.9,30.22,SW,225,0.0,0.0,79,0.00,,,0.00,WUHU216HW,2013-01-18 09:13:00,
2013-01-18 01:18:00,36.8,30.9,30.22,SW,225,0.0,0.0,79,0.00,,,0.00,WUHU216HW,2013-01-18 09:18:00,
2013-01-18 01:23:00,36.6,30.7,30.21,SW,225,0.0,0.0,79,0.00,,,0.00,WUHU216HW,2013-01-18 09:23:00,
2013-01-18 01:28:00,36.5,30.5,30.21,SW,225,0.0,0.0,79,0.00,,,0.00,WUHU216HW,2013-01-18 09:28:00,
2013-01-18 01:33:00,36.3,30.4,30.22,SW,225,0.0,0.0,79,0.00,,,0.00,WUHU216HW,2013-01-18 09:33:00,
2013-01-18 01:38:00,36.3,30.4,30.22,SW,225,0.0,0.0,79,0.00,,,0.00,WUHU216HW,2013-01-18 09:38:00,
2013-01-18 01:43:00,36.1,30.2,30.22,SW,225,0.0,0.0,79,0.00,,,0.00,WUHU216HW,2013-01-18 09:43:00,
2013-01-18 01:48:00,36.1,30.2,30.22,SW,225,0.0,0.0,79,0.00,,,0.00,WUHU216HW,2013-01-18 09:48:00,
2013-01-18 01:53:00,35.9,30.0,30.22,SW,225,0.0,0.0,79,0.00,,,0.00,WUHU216HW,2013-01-18 09:53:00,
2013-01-18 01:58:00,35.7,29.8,30.22,SW,225,0.0,0.0,79,0.00,,,0.00,WUHU216HW,2013-01-18 09:58:00,
2013-01-18 02:03:00,35.7,30.2,30.22,SW,225,0.0,0.0,80,0.00,,,0.00,WUHU216HW,2013-01-18 10:03:00,
2013-01-18 02:08:00,35.7,30.2,30.22,SW,225,0.0,0.0,80,0.00,,,0.00,WUHU216HW,2013-01-18 10:08:00,
2013-01-18 02:13:00,35.7,30.2,30.22,SW,225,0.0,0.0,80,0.00,,,0.00,WUHU216HW,2013-01-18 10:13:00,
2013-01-18 02:18:00,35.4,29.8,30.22,SW,225,0.0,0.0,80,0.00,,,0.00,WUHU216HW,2013-01-18 10:18:00,
2013-01-18 02:23:00,35.4,29.8,30.22,SW,225,0.0,0.0,80,0.00,,,0.00,WUHU216HW,2013-01-18 10:23:00,
2013-01-18 02:28:00,35.4,29.8,30.22,SW,225,0.0,0.0,80,0.00,,,0.00,WUHU216HW,2013-01-18 10:28:00,
2013-01-18 02:33:00,35.2,29.6,30.22,SW,225,0.0,0.0,80,0.00,,,0.00,WUHU216HW,2013-01-18 10:33:00,
2013-01-18 02:38:00,35.2,29.6,30.22,SW,225,0.0,0.0,80,0.00,,,0.00,WUHU216HW,2013-01-18 10:38:00,
2013-01-18 02:43:00,34.8,29.3,30.22,SW,225,0.0,0.0,80,0.00,,,0.00,WUHU216HW,2013-01-18 10:43:00,
2013-01-18 02:48:00,34.8,29.3,30.22,SW,225,0.0,0.0,80,0.00,,,0.00,WUHU216HW,2013-01-18 10:48:00,
2013-01-18 02:53:00,34.7,29.1,30.22,SW,225,0.0,0.0,80,0.00,,,0.00,WUHU216HW,2013-01-18 10:53:00,
2013-01-18 02:58:00,34.5,28.9,30.22,SW,225,0.0,0.0,80,0.00,,,0.00,WUHU216HW,2013-01-18 10:58:00,
2013-01-18 03:03:00,34.7,29.1,30.22,SW,225,0.0,0.0,80,0.00,,,0.00,WUHU216HW,2013-01-18 11:03:00,
2013-01-18 03:08:00,34.7,29.1,30.22,SW,225,0.0,0.0,80,0.00,,,0.00,WUHU216HW,2013-01-18 11:08:00,
2013-01-18 03:13:00,34.7,28.9,30.22,SW,225,0.0,0.0,80,0.00,,,0.00,WUHU216HW,2013-01-18 11:13:00,
2013-01-18 03:18:00,34.5,29.2,30.22,SW,225,0.0,0.0,81,0.00,,,0.00,WUHU216HW,2013-01-18 11:18:00,
2013-01-18 03:23:00,34.3,29.0,30.22,SW,225,0.0,0.0,81,0.00,,,0.00,WUHU216HW,2013-01-18 11:23:00,
2013-01-18 03:28:00,34.3,29.0,30.22,SW,225,0.0,0.0,81,0.00,,,0.00,WUHU216HW,2013-01-18 11:28:00,
2013-01-18 03:33:00,34.3,29.0,30.22,SW,225,0.0,0.0,81,0.00,,,0.00,WUHU216HW,2013-01-18 11:33:00,
2013-01-18 03:38:00,34.3,29.0,30.22,SW,225,0.0,0.0,81,0.00,,,0.00,WUHU216HW,2013-01-18 11:38:00,
2013-01-18 03:43:00,34.3,29.0,30.22,SW,225,0.0,0.0,81,0.00,,,0.00,WUHU216HW,2013-01-18 11:43:00,
2013-01-18 03:48:00,34.3,29.0,30.22,SW,225,0.0,0.0,81,0.00,,,0.00,WUHU216HW,2013-01-18 11:48:00,
2013-01-18 03:53:00,34.3,29.0,30.22,SW,225,0.0,0.0,81,0.00,,,0.00,WUHU216HW,2013-01-18 11:53:00,
2013-01-18 03:58:00,34.1,28.8,30.22,SW,225,0.0,0.0,81,0.00,,,0.00,WUHU216HW,2013-01-18 11:58:00,
2013-01-18 04:03:00,34.1,28.8,30.22,SW,225,0.0,0.0,81,0.00,,,0.00,WUHU216HW,2013-01-18 12:03:00,
2013-01-18 04:08:00,33.9,28.8,30.22,SW,225,0.0,0.0,81,0.00,,,0.00,WUHU216HW,2013-01-18 12:08:00,
2013-01-18 04:13:00,33.9,28.6,30.22,SW,225,0.0,0.0,81,0.00,,,0.00,WUHU216HW,2013-01-18 12:13:00,
2013-01-18 04:18:00,33.9,28.6,30.22,SW,225,0.0,0.0,81,0.00,,,0.00,WUHU216HW,2013-01-18 12:18:00,
2013-01-18 04:23:00,33.8,28.5,30.22,SW,225,0.0,0.0,81,0.00,,,0.00,WUHU216HW,2013-01-18 12:23:00,
2013-01-18 04:28:00,33.8,28.5,30.22,SW,225,0.0,0.0,81,0.00,,,0.00,WUHU216HW,2013-01-18 12:28:00,
2013-01-18 04:33:00,33.6,28.3,30.22,SW,225,0.0,0.0,81,0.00,,,0.00,WUHU216HW,2013-01-18 12:33:00,
2013-01-18 04:38:00,33.6,28.3,30.22,SW,225,0.0,0.0,81,0.00,,,0.00,WUHU216HW,2013-01-18 12:38:00,
2013-01-18 04:43:00,33.6,28.3,30.22,SW,225,0.0,0.0,81,0.00,,,0.00,WUHU216HW,2013-01-18 12:43:00,
2013-01-18 04:48:00,33.4,28.1,30.22,SW,225,0.0,0.0,81,0.00,,,0.00,WUHU216HW,2013-01-18 12:48:00,
2013-01-18 04:53:00,33.4,28.4,30.22,SW,225,0.0,0.0,82,0.00,,,0.00,WUHU216HW,2013-01-18 12:53:00,
2013-01-18 04:58:00,33.4,28.4,30.22,SW,225,0.0,0.0,82,0.00,,,0.00,WUHU216HW,2013-01-18 12:58:00,
2013-01-18 05:03:00,33.4,28.4,30.22,SW,225,0.0,0.0,82,0.00,,,0.00,WUHU216HW,2013-01-18 13:03:00,
2013-01-18 05:08:00,33.4,28.4,30.22,SW,225,0.0,0.0,82,0.00,,,0.00,WUHU216HW,2013-01-18 13:08:00,
2013-01-18 05:13:00,33.4,28.4,30.22,SW,225,0.0,0.0,82,0.00,,,0.00,WUHU216HW,2013-01-18 13:13:00,
2013-01-18 05:18:00,33.4,28.4,30.22,SW,225,0.0,0.0,82,0.00,,,0.00,WUHU216HW,2013-01-18 13:18:00,
2013-01-18 05:23:00,33.4,28.4,30.22,SW,225,0.0,0.0,82,0.00,,,0.00,WUHU216HW,2013-01-18 13:23:00,
2013-01-18 05:28:00,33.4,28.4,30.23,SW,225,0.0,0.0,82,0.00,,,0.00,WUHU216HW,2013-01-18 13:28:00,
2013-01-18 05:33:00,33.4,28.4,30.23,SW,225,0.0,0.0,82,0.00,,,0.00,WUHU216HW,2013-01-18 13:33:00,
2013-01-18 05:38:00,33.4,28.4,30.22,SW,225,0.0,0.0,82,0.00,,,0.00,WUHU216HW,2013-01-18 13:38:00,
2013-01-18 05:43:00,33.4,28.4,30.23,SW,225,0.0,0.0,82,0.00,,,0.00,WUHU216HW,2013-01-18 13:43:00,
2013-01-18 05:48:00,33.4,28.4,30.23,SW,225,0.0,0.0,82,0.00,,,0.00,WUHU216HW,2013-01-18 13:48:00,
2013-01-18 05:53:00,33.2,28.3,30.23,SW,225,0.0,0.0,82,0.00,,,0.00,WUHU216HW,2013-01-18 13:53:00,
2013-01-18 05:58:00,33.0,28.1,30.22,SW,225,0.0,0.0,82,0.00,,,0.00,WUHU216HW,2013-01-18 13:58:00,
2013-01-18 06:03:00,32.9,27.9,30.22,SW,225,0.0,0.0,82,0.00,,,0.00,WUHU216HW,2013-01-18 14:03:00,
2013-01-18 06:08:00,32.9,27.9,30.23,SW,225,0.0,0.0,82,0.00,,,0.00,WUHU216HW,2013-01-18 14:08:00,
2013-01-18 06:13:00,32.7,28.2,30.23,SW,225,0.0,0.0,83,0.00,,,0.00,WUHU216HW,2013-01-18 14:13:00,
2013-01-18 06:18:00,32.9,28.2,30.23,SW,225,0.0,0.0,83,0.00,,,0.00,WUHU216HW,2013-01-18 14:18:00,
2013-01-18 06:23:00,32.9,28.2,30.23,SW,225,0.0,0.0,83,0.00,,,0.00,WUHU216HW,2013-01-18 14:23:00,
2013-01-18 06:28:00,33.0,28.4,30.23,SW,225,0.0,0.0,83,0.00,,,0.00,WUHU216HW,2013-01-18 14:28:00,
2013-01-18 06:33:00,33.2,28.5,30.23,SW,225,0.0,0.0,83,0.00,,,0.00,WUHU216HW,2013-01-18 14:33:00,
2013-01-18 06:38:00,33.4,28.7,30.23,SW,225,0.0,0.0,83,0.00,,,0.00,WUHU216HW,2013-01-18 14:38:00,
2013-01-18 06:43:00,33.4,28.7,30.22,SW,225,0.0,0.0,83,0.00,,,0.00,WUHU216HW,2013-01-18 14:43:00,
2013-01-18 06:48:00,33.2,28.5,30.23,SW,225,0.0,0.0,83,0.00,,,0.00,WUHU216HW,2013-01-18 14:48:00,
2013-01-18 06:53:00,33.0,28.4,30.23,SW,225,0.0,0.0,83,0.00,,,0.00,WUHU216HW,2013-01-18 14:53:00,
2013-01-18 06:58:00,33.0,28.2,30.23,SW,225,0.0,0.0,83,0.00,,,0.00,WUHU216HW,2013-01-18 14:58:00,
2013-01-18 07:03:00,32.7,28.1,30.23,SW,225,0.0,0.0,83,0.00,,,0.00,WUHU216HW,2013-01-18 15:03:00,
2013-01-18 07:08:00,32.6,28.0,30.23,SW,225,0.0,0.0,83,0.00,,,0.00,WUHU216HW,2013-01-18 15:08:00,
2013-01-18 07:13:00,32.6,28.0,30.23,SW,225,0.0,0.0,83,0.00,,,0.00,WUHU216HW,2013-01-18 15:13:00,
2013-01-18 07:18:00,32.3,27.7,30.23,SW,225,0.0,0.0,83,0.00,,,0.00,WUHU216HW,2013-01-18 15:18:00,
2013-01-18 07:23:00,32.3,27.7,30.23,SW,225,0.0,0.0,83,0.00,,,0.00,WUHU216HW,2013-01-18 15:23:00,
2013-01-18 07:28:00,32.3,27.7,30.23,North,0,0.0,0.0,83,0.00,,,0.00,WUHU216HW,2013-01-18 15:28:00,
2013-01-18 07:33:00,32.1,27.5,30.23,SW,225,0.0,0.0,83,0.00,,,0.00,WUHU216HW,2013-01-18 15:33:00,
2013-01-18 07:38:00,31.9,27.6,30.24,SW,225,0.0,0.0,84,0.00,,,0.00,WUHU216HW,2013-01-18 15:38:00,
2013-01-18 07:43:00,31.7,27.4,30.24,SW,225,0.0,0.0,84,0.00,,,0.00,WUHU216HW,2013-01-18 15:43:00,
2013-01-18 07:48:00,31.5,27.3,30.24,SW,225,0.0,0.0,84,0.00,,,0.00,WUHU216HW,2013-01-18 15:48:00,
2013-01-18 07:53:00,31.4,27.1,30.24,SW,225,0.0,0.0,84,0.00,,,0.00,WUHU216HW,2013-01-18 15:53:00,
2013-01-18 07:58:00,31.4,27.1,30.24,SW,225,0.0,0.0,84,0.00,,,0.00,WUHU216HW,2013-01-18 15:58:00,
2013-01-18 08:03:00,32.1,27.8,30.24,SW,225,0.0,0.0,84,0.00,,,0.00,WUHU216HW,2013-01-18 16:03:00,
2013-01-18 08:08:00,32.6,28.3,30.24,SW,225,0.0,0.0,84,0.00,,,0.00,WUHU216HW,2013-01-18 16:08:00,
2013-01-18 08:13:00,33.8,29.7,30.24,SW,225,0.0,0.0,85,0.00,,,0.00,WUHU216HW,2013-01-18 16:13:00,
2013-01-18 08:18:00,35.2,30.8,30.24,SW,225,0.0,0.0,84,0.00,,,0.00,WUHU216HW,2013-01-18 16:18:00,
2013-01-18 08:23:00,36.6,32.2,30.25,SW,225,0.0,0.0,84,0.00,,,0.00,WUHU216HW,2013-01-18 16:23:00,
2013-01-18 08:28:00,37.9,33.1,30.25,SW,225,0.0,0.0,83,0.00,,,0.00,WUHU216HW,2013-01-18 16:28:00,
2013-01-18 08:33:00,39.2,33.9,30.25,SW,225,0.0,0.0,81,0.00,,,0.00,WUHU216HW,2013-01-18 16:33:00,
2013-01-18 08:38:00,40.2,34.6,30.25,SW,225,0.0,0.0,80,0.00,,,0.00,WUHU216HW,2013-01-18 16:38:00,
2013-01-18 08:43:00,41.0,34.7,30.26,SW,225,0.0,0.0,78,0.00,,,0.00,WUHU216HW,2013-01-18 16:43:00,
2013-01-18 08:48:00,41.9,35.0,30.26,SW,225,0.0,0.0,76,0.00,,,0.00,WUHU216HW,2013-01-18 16:48:00,
2013-01-18 08:53:00,42.5,35.5,30.26,SW,225,0.0,0.0,76,0.00,,,0.00,WUHU216HW,2013-01-18 16:53:00,
2013-01-18 08:58:00,43.0,35.3,30.26,SW,225,0.0,0.0,74,0.00,,,0.00,WUHU216HW,2013-01-18 16:58:00,
2013-01-18 09:03:00,43.5,35.5,30.27,SW,225,0.0,0.0,73,0.00,,,0.00,WUHU216HW,2013-01-18 17:03:00,
2013-01-18 09:08:00,43.8,35.8,30.27,SW,225,0.0,0.0,73,0.00,,,0.00,WUHU216HW,2013-01-18 17:08:00,
2013-01-18 09:13:00,44.2,35.8,30.27,SW,225,0.0,0.0,72,0.00,,,0.00,WUHU216HW,2013-01-18 17:13:00,
2013-01-18 09:18:00,44.3,35.6,30.27,SW,225,0.0,0.0,71,0.00,,,0.00,WUHU216HW,2013-01-18 17:18:00,
2013-01-18 09:23:00,44.2,35.5,30.27,SW,225,0.0,0.0,71,0.00,,,0.00,WUHU216HW,2013-01-18 17:23:00,
2013-01-18 09:28:00,43.9,35.2,30.27,SW,225,0.0,0.0,71,0.00,,,0.00,WUHU216HW,2013-01-18 17:28:00,
2013-01-18 09:33:00,43.4,34.7,30.27,SW,225,0.0,0.0,71,0.00,,,0.00,WUHU216HW,2013-01-18 17:33:00,
2013-01-18 09:38:00,43.3,35.0,30.27,SW,225,0.0,0.0,72,0.00,,,0.00,WUHU216HW,2013-01-18 17:38:00,
2013-01-18 09:43:00,43.4,35.1,30.27,SW,225,0.0,0.0,72,0.00,,,0.00,WUHU216HW,2013-01-18 17:43:00,
2013-01-18 09:48:00,43.8,35.7,30.27,SW,225,0.0,0.0,73,0.00,,,0.00,WUHU216HW,2013-01-18 17:48:00,
2013-01-18 09:53:00,43.7,35.7,30.28,SW,225,0.0,0.0,73,0.00,,,0.00,WUHU216HW,2013-01-18 17:53:00,
2013-01-18 09:58:00,43.8,35.8,30.28,SW,225,0.0,0.0,73,0.00,,,0.00,WUHU216HW,2013-01-18 17:58:00,
2013-01-18 10:03:00,43.8,35.4,30.27,SW,225,0.0,0.0,72,0.00,,,0.00,WUHU216HW,2013-01-18 18:03:00,
2013-01-18 10:08:00,43.7,35.7,30.27,SW,225,0.0,0.0,73,0.00,,,0.00,WUHU216HW,2013-01-18 18:08:00,
2013-01-18 10:13:00,43.8,35.8,30.27,SW,225,0.0,0.0,73,0.00,,,0.00,WUHU216HW,2013-01-18 18:13:00,
2013-01-18 10:18:00,44.0,36.0,30.27,SW,225,0.0,0.0,73,0.00,,,0.00,WUHU216HW,2013-01-18 18:18:00,
2013-01-18 10:23:00,44.2,36.1,30.27,SW,225,0.0,0.0,73,0.00,,,0.00,WUHU216HW,2013-01-18 18:23:00,
2013-01-18 10:28:00,44.1,35.8,30.27,SW,225,0.0,0.0,72,0.00,,,0.00,WUHU216HW,2013-01-18 18:28:00,
2013-01-18 10:33:00,44.3,36.0,30.27,SW,225,0.0,0.0,72,0.00,,,0.00,WUHU216HW,2013-01-18 18:33:00,
2013-01-18 10:38:00,44.5,35.8,30.27,SW,225,0.0,0.0,71,0.00,,,0.00,WUHU216HW,2013-01-18 18:38:00,
2013-01-18 10:43:00,44.7,35.9,30.27,SW,225,0.0,0.0,71,0.00,,,0.00,WUHU216HW,2013-01-18 18:43:00,
2013-01-18 10:48:00,45.1,36.3,30.27,SW,225,0.0,0.0,71,0.00,,,0.00,WUHU216HW,2013-01-18 18:48:00,
2013-01-18 10:53:00,45.3,36.5,30.27,SW,225,0.0,0.0,71,0.00,,,0.00,WUHU216HW,2013-01-18 18:53:00,
2013-01-18 10:58:00,45.3,36.6,30.26,SW,225,0.0,0.0,71,0.00,,,0.00,WUHU216HW,2013-01-18 18:58:00,
2013-01-18 11:03:00,45.4,36.6,30.26,SW,225,0.0,0.0,71,0.00,,,0.00,WUHU216HW,2013-01-18 19:03:00,
2013-01-18 11:08:00,45.7,36.9,30.25,SW,225,0.0,0.0,71,0.00,,,0.00,WUHU216HW,2013-01-18 19:08:00,
2013-01-18 11:14:00,46.0,36.8,30.25,SW,225,0.0,0.0,70,0.00,,,0.00,WUHU216HW,2013-01-18 19:14:00,
2013-01-18 11:19:00,46.4,37.3,30.24,SW,225,0.0,0.0,70,0.00,,,0.00,WUHU216HW,2013-01-18 19:19:00,
2013-01-18 11:24:00,46.8,37.3,30.24,SW,225,0.0,0.0,69,0.00,,,0.00,WUHU216HW,2013-01-18 19:24:00,
2013-01-18 11:29:00,47.3,37.7,30.24,SSW,203,0.0,0.0,69,0.00,,,0.00,WUHU216HW,2013-01-18 19:29:00,
2013-01-18 11:34:00,47.5,38.0,30.24,SSW,203,0.0,0.0,69,0.00,,,0.00,WUHU216HW,2013-01-18 19:34:00,
2013-01-18 11:39:00,47.9,38.0,30.23,SSW,203,0.0,0.0,68,0.00,,,0.00,WUHU216HW,2013-01-18 19:39:00,
2013-01-18 11:44:00,48.4,38.4,30.23,South,180,0.0,0.0,68,0.00,,,0.00,WUHU216HW,2013-01-18 19:44:00,
2013-01-18 11:49:00,48.5,38.2,30.23,South,180,0.0,0.0,67,0.00,,,0.00,WUHU216HW,2013-01-18 19:49:00,
2013-01-18 11:54:00,48.8,38.4,30.23,South,180,0.0,0.0,67,0.00,,,0.00,WUHU216HW,2013-01-18 19:54:00,
2013-01-18 11:59:00,49.2,38.8,30.22,South,180,0.0,0.0,67,0.00,,,0.00,WUHU216HW,2013-01-18 19:59:00,
2013-01-18 12:04:00,49.3,38.9,30.22,South,180,0.0,0.0,67,0.00,,,0.00,WUHU216HW,2013-01-18 20:04:00,
2013-01-18 12:09:00,49.8,39.4,30.22,South,180,0.0,0.0,67,0.00,,,0.00,WUHU216HW,2013-01-18 20:09:00,
2013-01-18 12:14:00,50.0,39.2,30.22,South,180,0.0,0.0,66,0.00,,,0.00,WUHU216HW,2013-01-18 20:14:00,
2013-01-18 12:19:00,50.3,39.5,30.21,SSE,158,0.0,0.0,66,0.00,,,0.00,WUHU216HW,2013-01-18 20:19:00,
2013-01-18 12:24:00,50.7,39.5,30.21,South,180,0.0,0.0,65,0.00,,,0.00,WUHU216HW,2013-01-18 20:24:00,
2013-01-18 12:29:00,50.8,39.2,30.21,SSE,158,0.0,0.0,64,0.00,,,0.00,WUHU216HW,2013-01-18 20:29:00,
2013-01-18 12:34:00,51.2,39.5,30.21,WSW,248,0.0,0.0,64,0.00,,,0.00,WUHU216HW,2013-01-18 20:34:00,
2013-01-18 12:39:00,51.7,39.6,30.20,WSW,248,0.0,0.0,63,0.00,,,0.00,WUHU216HW,2013-01-18 20:39:00,
2013-01-18 12:44:00,51.8,39.8,30.20,SW,225,0.0,0.0,63,0.00,,,0.00,WUHU216HW,2013-01-18 20:44:00,
2013-01-18 12:49:00,52.3,39.8,30.20,SW,225,0.0,0.0,62,0.00,,,0.00,WUHU216HW,2013-01-18 20:49:00,
2013-01-18 12:54:00,53.0,40.5,30.20,SW,225,0.0,0.0,62,0.00,,,0.00,WUHU216HW,2013-01-18 20:54:00,
2013-01-18 12:59:00,53.4,40.4,30.20,SW,225,0.0,0.0,61,0.00,,,0.00,WUHU216HW,2013-01-18 20:59:00,
2013-01-18 13:04:00,53.5,40.1,30.20,SW,225,0.0,0.0,60,0.00,,,0.00,WUHU216HW,2013-01-18 21:04:00,
2013-01-18 13:09:00,53.7,40.2,30.19,SW,225,0.0,0.0,60,0.00,,,0.00,WUHU216HW,2013-01-18 21:09:00,
2013-01-18 13:14:00,53.9,40.0,30.19,SW,225,0.0,0.0,59,0.00,,,0.00,WUHU216HW,2013-01-18 21:14:00,
2013-01-18 13:19:00,54.1,40.2,30.19,SSW,203,0.0,0.0,59,0.00,,,0.00,WUHU216HW,2013-01-18 21:19:00,
2013-01-18 13:24:00,54.4,40.0,30.19,SW,225,0.0,0.0,58,0.00,,,0.00,WUHU216HW,2013-01-18 21:24:00,
2013-01-18 13:29:00,54.8,40.4,30.19,SSW,203,0.0,0.0,58,0.00,,,0.00,WUHU216HW,2013-01-18 21:29:00,
2013-01-18 13:34:00,54.8,40.4,30.18,SSW,203,0.0,0.0,58,0.00,,,0.00,WUHU216HW,2013-01-18 21:34:00,
2013-01-18 13:39:00,55.0,40.6,30.19,SSW,203,0.0,0.0,58,0.00,,,0.00,WUHU216HW,2013-01-18 21:39:00,
2013-01-18 13:44:00,55.3,40.4,30.18,SSW,203,0.0,0.0,57,0.00,,,0.00,WUHU216HW,2013-01-18 21:44:00,
2013-01-18 13:49:00,55.5,40.6,30.18,SSW,203,0.0,0.0,57,0.00,,,0.00,WUHU216HW,2013-01-18 21:49:00,
2013-01-18 13:54:00,55.8,40.4,30.18,SSW,203,0.0,0.0,56,0.00,,,0.00,WUHU216HW,2013-01-18 21:54:00,
2013-01-18 13:59:00,56.0,40.6,30.18,SSW,203,0.0,0.0,56,0.00,,,0.00,WUHU216HW,2013-01-18 21:59:00,
2013-01-18 14:04:00,56.0,40.6,30.18,SSW,203,0.0,0.0,56,0.00,,,0.00,WUHU216HW,2013-01-18 22:04:00,
2013-01-18 14:09:00,56.2,40.8,30.17,SSW,203,0.0,0.0,56,0.00,,,0.00,WUHU216HW,2013-01-18 22:09:00,
2013-01-18 14:14:00,56.2,40.8,30.17,SSW,203,0.0,0.0,56,0.00,,,0.00,WUHU216HW,2013-01-18 22:14:00,
2013-01-18 14:19:00,56.3,40.4,30.18,SW,225,0.0,0.0,55,0.00,,,0.00,WUHU216HW,2013-01-18 22:19:00,
2013-01-18 14:24:00,56.3,40.4,30.17,SW,225,0.0,0.0,55,0.00,,,0.00,WUHU216HW,2013-01-18 22:24:00,
2013-01-18 14:29:00,56.5,40.6,30.17,SW,225,0.0,0.0,55,0.00,,,0.00,WUHU216HW,2013-01-18 22:29:00,
2013-01-18 14:34:00,57.0,41.0,30.16,SW,225,0.0,0.0,55,0.00,,,0.00,WUHU216HW,2013-01-18 22:34:00,
2013-01-18 14:39:00,57.0,41.0,30.16,SW,225,0.0,0.0,55,0.00,,,0.00,WUHU216HW,2013-01-18 22:39:00,
2013-01-18 14:44:00,57.0,40.6,30.16,SW,225,0.0,0.0,54,0.00,,,0.00,WUHU216HW,2013-01-18 22:44:00,
2013-01-18 14:49:00,57.0,41.1,30.16,SW,225,0.0,0.0,55,0.00,,,0.00,WUHU216HW,2013-01-18 22:49:00,
2013-01-18 14:54:00,57.0,40.6,30.16,SW,225,0.0,0.0,54,0.00,,,0.00,WUHU216HW,2013-01-18 22:54:00,
2013-01-18 14:59:00,57.1,40.6,30.16,SW,225,0.0,0.0,54,0.00,,,0.00,WUHU216HW,2013-01-18 22:59:00,
2013-01-18 15:04:00,57.1,40.7,30.16,SW,225,0.0,0.0,54,0.00,,,0.00,WUHU216HW,2013-01-18 23:04:00,
2013-01-18 15:09:00,57.3,40.4,30.16,West,270,0.0,0.0,53,0.00,,,0.00,WUHU216HW,2013-01-18 23:09:00,
2013-01-18 15:14:00,57.1,40.2,30.16,West,270,0.0,0.0,53,0.00,,,0.00,WUHU216HW,2013-01-18 23:14:00,
2013-01-18 15:19:00,57.2,40.2,30.16,West,270,0.0,0.0,53,0.00,,,0.00,WUHU216HW,2013-01-18 23:19:00,
2013-01-18 15:24:00,57.2,40.2,30.16,West,270,0.0,0.0,53,0.00,,,0.00,WUHU216HW,2013-01-18 23:24:00,
2013-01-18 15:29:00,57.2,40.3,30.16,West,270,0.0,0.0,53,0.00,,,0.00,WUHU216HW,2013-01-18 23:29:00,
2013-01-18 15:34:00,57.2,40.3,30.16,WSW,248,0.0,0.0,53,0.00,,,0.00,WUHU216HW,2013-01-18 23:34:00,
2013-01-18 15:39:00,57.3,40.3,30.16,WSW,248,0.0,0.0,53,0.00,,,0.00,WUHU216HW,2013-01-18 23:39:00,
2013-01-18 15:44:00,57.3,40.3,30.15,WSW,248,0.0,0.0,53,0.00,,,0.00,WUHU216HW,2013-01-18 23:44:00,
2013-01-18 15:49:00,57.3,40.4,30.15,WSW,248,0.0,0.0,53,0.00,,,0.00,WUHU216HW,2013-01-18 23:49:00,
2013-01-18 15:53:00,57.3,40.4,30.15,WSW,248,0.0,0.0,53,0.00,,,0.00,WUHU216HW,2013-01-18 23:53:00,
2013-01-18 15:58:00,57.4,40.4,30.15,WSW,248,0.0,0.0,53,0.00,,,0.00,WUHU216HW,2013-01-18 23:58:00,
2013-01-18 16:03:00,57.4,40.5,30.15,WSW,248,0.0,0.0,53,0.00,,,0.00,WUHU216HW,2013-01-19 00:03:00,
2013-01-18 16:08:00,57.2,40.3,30.16,WSW,248,0.0,0.0,53,0.00,,,0.00,WUHU216HW,2013-01-19 00:08:00,
2013-01-18 16:13:00,57.1,40.1,30.16,WNW,293,0.0,0.0,53,0.00,,,0.00,WUHU216HW,2013-01-19 00:13:00,
2013-01-18 16:18:00,56.9,40.0,30.16,WNW,293,0.0,0.0,53,0.00,,,0.00,WUHU216HW,2013-01-19 00:18:00,
2013-01-18 16:23:00,56.8,39.9,30.16,WNW,293,0.0,0.0,53,0.00,,,0.00,WUHU216HW,2013-01-19 00:23:00,
2013-01-18 16:28:00,56.9,40.5,30.16,WNW,293,0.0,0.0,54,0.00,,,0.00,WUHU216HW,2013-01-19 00:28:00,
2013-01-18 16:33:00,56.7,40.3,30.16,West,270,0.0,0.0,54,0.00,,,0.00,WUHU216HW,2013-01-19 00:33:00,
2013-01-18 16:38:00,56.5,40.1,30.16,West,270,0.0,0.0,54,0.00,,,0.00,WUHU216HW,2013-01-19 00:38:00,
2013-01-18 16:43:00,56.4,40.5,30.15,WNW,293,0.0,0.0,55,0.00,,,0.00,WUHU216HW,2013-01-19 00:43:00,
2013-01-18 16:48:00,56.2,40.3,30.16,West,270,0.0,0.0,55,0.00,,,0.00,WUHU216HW,2013-01-19 00:48:00,
2013-01-18 16:53:00,56.0,40.1,30.16,West,270,0.0,0.0,55,0.00,,,0.00,WUHU216HW,2013-01-19 00:53:00,
2013-01-18 16:58:00,55.8,40.4,30.16,West,270,0.0,0.0,56,0.00,,,0.00,WUHU216HW,2013-01-19 00:58:00,
2013-01-18 17:03:00,55.4,40.1,30.16,West,270,0.0,0.0,56,0.00,,,0.00,WUHU216HW,2013-01-19 01:03:00,
2013-01-18 17:08:00,55.2,40.3,30.16,West,270,0.0,0.0,57,0.00,,,0.00,WUHU216HW,2013-01-19 01:08:00,
2013-01-18 17:13:00,54.8,39.9,30.16,West,270,0.0,0.0,57,0.00,,,0.00,WUHU216HW,2013-01-19 01:13:00,
2013-01-18 17:18:00,54.5,40.2,30.16,West,270,0.0,0.0,58,0.00,,,0.00,WUHU216HW,2013-01-19 01:18:00,
2013-01-18 17:23:00,54.2,39.8,30.15,West,270,0.0,0.0,58,0.00,,,0.00,WUHU216HW,2013-01-19 01:23:00,
2013-01-18 17:28:00,53.8,39.9,30.16,West,270,0.0,0.0,59,0.00,,,0.00,WUHU216HW,2013-01-19 01:28:00,
2013-01-18 17:33:00,53.6,39.7,30.15,West,270,0.0,0.0,59,0.00,,,0.00,WUHU216HW,2013-01-19 01:33:00,
2013-01-18 17:38:00,53.2,39.3,30.16,West,270,0.0,0.0,59,0.00,,,0.00,WUHU216HW,2013-01-19 01:38:00,
2013-01-18 17:43:00,52.7,38.9,30.16,West,270,0.0,0.0,59,0.00,,,0.00,WUHU216HW,2013-01-19 01:43:00,
2013-01-18 17:48:00,52.6,39.2,30.16,West,270,0.0,0.0,60,0.00,,,0.00,WUHU216HW,2013-01-19 01:48:00,
2013-01-18 17:53:00,52.2,39.3,30.16,West,270,0.0,0.0,61,0.00,,,0.00,WUHU216HW,2013-01-19 01:53:00,
2013-01-18 17:58:00,52.0,39.0,30.16,West,270,0.0,0.0,61,0.00,,,0.00,WUHU216HW,2013-01-19 01:58:00,
2013-01-18 18:03:00,51.8,38.9,30.16,West,270,0.0,0.0,61,0.00,,,0.00,WUHU216HW,2013-01-19 02:03:00,
2013-01-18 18:08:00,51.5,39.0,30.16,West,270,0.0,0.0,62,0.00,,,0.00,WUHU216HW,2013-01-19 02:08:00,
2013-01-18 18:13:00,51.2,38.7,30.16,West,270,0.0,0.0,62,0.00,,,0.00,WUHU216HW,2013-01-19 02:13:00,
2013-01-18 18:18:00,51.0,38.6,30.16,West,270,0.0,0.0,62,0.00,,,0.00,WUHU216HW,2013-01-19 02:18:00,
2013-01-18 18:23:00,50.7,38.2,30.16,West,270,0.0,0.0,62,0.00,,,0.00,WUHU216HW,2013-01-19 02:23:00,
2013-01-18 18:28:00,50.6,38.2,30.16,West,270,0.0,0.0,62,0.00,,,0.00,WUHU216HW,2013-01-19 02:28:00,
2013-01-18 18:33:00,50.3,38.3,30.16,West,270,0.0,0.0,63,0.00,,,0.00,WUHU216HW,2013-01-19 02:33:00,
2013-01-18 18:38:00,50.1,38.1,30.16,West,270,0.0,0.0,63,0.00,,,0.00,WUHU216HW,2013-01-19 02:38:00,
2013-01-18 18:43:00,49.9,38.4,30.16,West,270,0.0,0.0,64,0.00,,,0.00,WUHU216HW,2013-01-19 02:43:00,
2013-01-18 18:48:00,49.7,38.1,30.16,West,270,0.0,0.0,64,0.00,,,0.00,WUHU216HW,2013-01-19 02:48:00,
2013-01-18 18:53:00,49.5,38.0,30.16,West,270,0.0,0.0,64,0.00,,,0.00,WUHU216HW,2013-01-19 02:53:00,
2013-01-18 18:58:00,49.2,37.6,30.16,West,270,0.0,0.0,64,0.00,,,0.00,WUHU216HW,2013-01-19 02:58:00,
2013-01-18 19:03:00,48.9,37.2,30.16,West,270,0.0,0.0,64,0.00,,,0.00,WUHU216HW,2013-01-19 03:03:00,
2013-01-18 19:08:00,48.7,37.4,30.17,West,270,0.0,0.0,65,0.00,,,0.00,WUHU216HW,2013-01-19 03:08:00,
2013-01-18 19:13:00,48.3,37.3,30.17,West,270,0.0,0.0,65,0.00,,,0.00,WUHU216HW,2013-01-19 03:13:00,
2013-01-18 19:18:00,48.0,37.1,30.17,West,270,0.0,0.0,66,0.00,,,0.00,WUHU216HW,2013-01-19 03:18:00,
2013-01-18 19:23:00,47.8,36.9,30.17,West,270,0.0,0.0,66,0.00,,,0.00,WUHU216HW,2013-01-19 03:23:00,
2013-01-18 19:28:00,47.4,36.6,30.17,West,270,0.0,0.0,66,0.00,,,0.00,WUHU216HW,2013-01-19 03:28:00,
2013-01-18 19:33:00,47.3,36.8,30.17,West,270,0.0,0.0,67,0.00,,,0.00,WUHU216HW,2013-01-19 03:33:00,
2013-01-18 19:38:00,46.9,36.6,30.17,West,270,0.0,0.0,67,0.00,,,0.00,WUHU216HW,2013-01-19 03:38:00,
2013-01-18 19:43:00,46.9,36.5,30.17,West,270,0.0,0.0,67,0.00,,,0.00,WUHU216HW,2013-01-19 03:43:00,
2013-01-18 19:48:00,46.5,36.5,30.17,WNW,293,0.0,0.0,68,0.00,,,0.00,WUHU216HW,2013-01-19 03:48:00,
2013-01-18 19:53:00,46.4,36.4,30.17,West,270,0.0,0.0,68,0.00,,,0.00,WUHU216HW,2013-01-19 03:53:00,
2013-01-18 19:58:00,46.2,36.2,30.17,West,270,0.0,0.0,68,0.00,,,0.00,WUHU216HW,2013-01-19 03:58:00,
2013-01-18 20:03:00,46.5,36.5,30.17,West,270,0.0,0.0,68,0.00,,,0.00,WUHU216HW,2013-01-19 04:03:00,
2013-01-18 20:08:00,46.5,36.5,30.17,West,270,0.0,0.0,68,0.00,,,0.00,WUHU216HW,2013-01-19 04:08:00,
2013-01-18 20:13:00,46.5,36.5,30.17,West,270,0.0,0.0,68,0.00,,,0.00,WUHU216HW,2013-01-19 04:13:00,
2013-01-18 20:18:00,46.5,36.5,30.17,West,270,0.0,0.0,68,0.00,,,0.00,WUHU216HW,2013-01-19 04:18:00,
2013-01-18 20:23:00,46.2,36.2,30.17,West,270,0.0,0.0,68,0.00,,,0.00,WUHU216HW,2013-01-19 04:23:00,
2013-01-18 20:28:00,46.0,36.0,30.17,West,270,0.0,0.0,68,0.00,,,0.00,WUHU216HW,2013-01-19 04:28:00,
2013-01-18 20:33:00,45.6,35.7,30.17,West,270,0.0,0.0,68,0.00,,,0.00,WUHU216HW,2013-01-19 04:33:00,
2013-01-18 20:38:00,45.3,35.3,30.18,West,270,0.0,0.0,68,0.00,,,0.00,WUHU216HW,2013-01-19 04:38:00,
2013-01-18 20:43:00,45.1,35.5,30.17,West,270,0.0,0.0,69,0.00,,,0.00,WUHU216HW,2013-01-19 04:43:00,
2013-01-18 20:48:00,44.9,35.3,30.17,West,270,0.0,0.0,69,0.00,,,0.00,WUHU216HW,2013-01-19 04:48:00,
2013-01-18 20:53:00,44.7,35.2,30.17,West,270,0.0,0.0,69,0.00,,,0.00,WUHU216HW,2013-01-19 04:53:00,
2013-01-18 20:58:00,44.6,35.4,30.17,West,270,0.0,0.0,70,0.00,,,0.00,WUHU216HW,2013-01-19 04:58:00,
2013-01-18 21:00:00,44.6,35.4,30.17,West,270,0.0,0.0,70,0.00,,,0.00,WUHU216HW,2013-01-19 05:00:00,
2013-01-18 21:01:00,44.6,35.4,30.17,West,270,0.0,0.0,70,0.00,,,0.00,WUHU216HW,2013-01-19 05:01:00,
2013-01-18 21:02:00,44.6,35.4,30.17,West,270,0.0,0.0,70,0.00,,,0.00,WUHU216HW,2013-01-19 05:02:00,
2013-01-18 21:03:00,44.4,35.2,30.17,West,270,0.0,0.0,70,0.00,,,0.00,WUHU216HW,2013-01-19 05:03:00,
2013-01-18 21:08:00,44.6,35.4,30.17,SW,225,0.0,0.0,70,0.00,,,0.00,WUHU216HW,2013-01-19 05:08:00,
2013-01-18 21:13:00,44.7,35.9,30.17,SW,225,0.0,0.0,71,0.00,,,0.00,WUHU216HW,2013-01-19 05:13:00,
2013-01-18 21:18:00,44.7,35.9,30.18,SW,225,0.0,0.0,71,0.00,,,0.00,WUHU216HW,2013-01-19 05:18:00,
2013-01-18 21:23:00,44.9,36.1,30.18,SW,225,0.0,0.0,71,0.00,,,0.00,WUHU216HW,2013-01-19 05:23:00,
2013-01-18 21:28:00,44.9,36.1,30.18,SW,225,0.0,0.0,71,0.00,,,0.00,WUHU216HW,2013-01-19 05:28:00,
2013-01-18 21:33:00,44.7,35.6,30.18,SW,225,0.0,0.0,70,0.00,,,0.00,WUHU216HW,2013-01-19 05:33:00,
2013-01-18 21:38:00,44.7,35.6,30.18,SW,225,0.0,0.0,70,0.00,,,0.00,WUHU216HW,2013-01-19 05:38:00,
2013-01-18 21:43:00,44.6,35.4,30.17,SW,225,0.0,0.0,70,0.00,,,0.00,WUHU216HW,2013-01-19 05:43:00,
2013-01-18 21:48:00,44.4,35.2,30.18,SW,225,0.0,0.0,70,0.00,,,0.00,WUHU216HW,2013-01-19 05:48:00,
2013-01-18 21:53:00,44.2,35.0,30.18,SW,225,0.0,0.0,70,0.00,,,0.00,WUHU216HW,2013-01-19 05:53:00,
2013-01-18 21:58:00,43.8,34.7,30.18,SW,225,0.0,0.0,70,0.00,,,0.00,WUHU216HW,2013-01-19 05:58:00,
2013-01-18 22:03:00,43.5,34.4,30.19,SW,225,0.0,0.0,70,0.00,,,0.00,WUHU216HW,2013-01-19 06:03:00,
2013-01-18 22:08:00,42.9,34.4,30.18,SW,225,0.0,0.0,71,0.00,,,0.00,WUHU216HW,2013-01-19 06:08:00,
2013-01-18 22:13:00,42.8,34.1,30.19,SW,225,0.0,0.0,71,0.00,,,0.00,WUHU216HW,2013-01-19 06:13:00,
2013-01-18 22:18:00,42.6,34.2,30.19,SW,225,0.0,0.0,72,0.00,,,0.00,WUHU216HW,2013-01-19 06:18:00,
2013-01-18 22:23:00,42.4,33.7,30.19,SW,225,0.0,0.0,71,0.00,,,0.00,WUHU216HW,2013-01-19 06:23:00,
2013-01-18 22:28:00,42.0,33.7,30.18,SW,225,0.0,0.0,72,0.00,,,0.00,WUHU216HW,2013-01-19 06:28:00,
2013-01-18 22:33:00,41.7,33.3,30.18,SW,225,0.0,0.0,72,0.00,,,0.00,WUHU216HW,2013-01-19 06:33:00,
2013-01-18 22:38:00,41.5,33.5,30.19,SW,225,0.0,0.0,73,0.00,,,0.00,WUHU216HW,2013-01-19 06:38:00,
2013-01-18 22:43:00,41.3,33.3,30.18,SW,225,0.0,0.0,73,0.00,,,0.00,WUHU216HW,2013-01-19 06:43:00,
2013-01-18 22:48:00,41.1,33.1,30.19,SW,225,0.0,0.0,73,0.00,,,0.00,WUHU216HW,2013-01-19 06:48:00,
2013-01-18 22:53:00,40.8,32.7,30.19,SW,225,0.0,0.0,73,0.00,,,0.00,WUHU216HW,2013-01-19 06:53:00,
2013-01-18 22:58:00,40.8,32.7,30.19,SW,225,0.0,0.0,73,0.00,,,0.00,WUHU216HW,2013-01-19 06:58:00,
2013-01-18 23:03:00,40.6,32.9,30.19,SW,225,0.0,0.0,74,0.00,,,0.00,WUHU216HW,2013-01-19 07:03:00,
2013-01-18 23:08:00,40.2,32.5,30.19,SW,225,0.0,0.0,74,0.00,,,0.00,WUHU216HW,2013-01-19 07:08:00,
2013-01-18 23:13:00,40.1,32.4,30.19,SW,225,0.0,0.0,74,0.00,,,0.00,WUHU216HW,2013-01-19 07:13:00,
2013-01-18 23:18:00,39.9,32.5,30.19,SW,225,0.0,0.0,75,0.00,,,0.00,WUHU216HW,2013-01-19 07:18:00,
2013-01-18 23:23:00,39.9,32.5,30.19,SW,225,0.0,0.0,75,0.00,,,0.00,WUHU216HW,2013-01-19 07:23:00,
2013-01-18 23:28:00,39.7,32.4,30.19,SW,225,0.0,0.0,75,0.00,,,0.00,WUHU216HW,2013-01-19 07:28:00,
2013-01-18 23:33:00,39.7,32.4,30.19,SW,225,0.0,0.0,75,0.00,,,0.00,WUHU216HW,2013-01-19 07:33:00,
2013-01-18 23:38:00,39.5,32.2,30.19,SW,225,0.0,0.0,75,0.00,,,0.00,WUHU216HW,2013-01-19 07:38:00,
2013-01-18 23:43:00,39.3,32.0,30.19,SW,225,0.0,0.0,75,0.00,,,0.00,WUHU216HW,2013-01-19 07:43:00,
2013-01-18 23:48:00,39.3,32.0,30.19,SW,225,0.0,0.0,75,0.00,,,0.00,WUHU216HW,2013-01-19 07:48:00,
2013-01-18 23:53:00,39.0,32.0,30.19,SW,225,0.0,0.0,76,0.00,,,0.00,WUHU216HW,2013-01-19 07:53:00,
2013-01-18 23:58:00,39.0,32.0,30.19,SW,225,0.0,0.0,76,0.00,,,0.00,WUHU216HW,2013-01-19 07:58:00,